Time;durP1;ratioP1;P1;durP2;ratioP2;P2;SDS_P1;SDS_P2;PMS_P1;PMS_P2;Temp;Humidity;BMP_temperature;BMP_pressure;BME280_temperature;BME280_humidity;BME280_pressure;Samples;Min_cycle;Max_cycle;Signal;HPM_P1;HPM_P2
2022/05/27 00:01:46;;;;;;;;;;;25.10;41.60;;;;;;1529664;75;1934;-57
2022/05/27 00:03:48;;;;;;;;;;;25.10;41.70;;;;;;1538471;76;678;-58
2022/05/27 00:05:50;;;;;;;;;;;25.10;41.70;;;;;;1541462;76;682;-59
2022/05/27 00:07:52;;;;;;;;;;;25.10;41.60;;;;;;1534094;76;1460;-59
2022/05/27 00:09:54;;;;;;;;;;;25.10;41.60;;;;;;1547684;76;760;-58
2022/05/27 00:11:56;;;;;;;;;;;25.10;41.70;;;;;;1537374;76;1076;-59
2022/05/27 00:13:59;;;;;;;;;;;25.10;41.70;;;;;;1541435;76;663;-58
2022/05/27 00:16:01;;;;;;;;;;;25.10;41.70;;;;;;1534859;76;763;-59
2022/05/27 00:18:03;;;;;;;;;;;25.10;41.60;;;;;;1534713;76;791;-57
2022/05/27 00:20:05;;;;;;;;;;;25.10;41.50;;;;;;1526628;75;1154;-59
2022/05/27 00:22:08;;;;;;;;;;;25.10;41.60;;;;;;1530040;76;1934;-59
2022/05/27 00:24:10;;;;;;;;;;;25.10;41.60;;;;;;1542912;76;666;-59
2022/05/27 00:26:12;;;;;;;;;;;25.10;41.50;;;;;;1528612;76;735;-59
2022/05/27 00:28:14;;;;;;;;;;;25.10;41.50;;;;;;1533587;76;739;-60
2022/05/27 00:30:16;;;;;;;;;;;25.10;41.60;;;;;;1530493;76;1130;-59
2022/05/27 00:32:18;;;;;;;;;;;25.10;41.60;;;;;;1543303;75;697;-58
2022/05/27 00:34:20;;;;;;;;;;;25.10;41.60;;;;;;1541272;75;816;-60
2022/05/27 00:36:22;;;;;;;;;;;25.00;41.70;;;;;;1533680;75;1598;-60
2022/05/27 00:38:24;;;;;;;;;;;25.10;41.80;;;;;;1532352;76;663;-59
2022/05/27 00:40:26;;;;;;;;;;;25.00;41.70;;;;;;1539600;75;1121;-59
2022/05/27 00:42:28;;;;;;;;;;;25.10;41.70;;;;;;1526565;75;1931;-58
2022/05/27 00:44:30;;;;;;;;;;;25.00;41.70;;;;;;1533854;76;693;-59
2022/05/27 00:46:32;;;;;;;;;;;25.00;41.80;;;;;;1537999;75;677;-59
2022/05/27 00:48:35;;;;;;;;;;;25.10;41.70;;;;;;1527916;76;681;-57
2022/05/27 00:50:37;;;;;;;;;;;25.00;41.80;;;;;;1534548;76;1566;-60
2022/05/27 00:52:39;;;;;;;;;;;25.00;41.80;;;;;;1524396;76;758;-59
2022/05/27 00:54:41;;;;;;;;;;;25.00;41.70;;;;;;1534534;76;669;-58
2022/05/27 00:56:43;;;;;;;;;;;25.00;41.80;;;;;;1534605;76;697;-57
2022/05/27 00:58:46;;;;;;;;;;;25.00;41.70;;;;;;1534424;76;680;-60
2022/05/27 01:00:48;;;;;;;;;;;25.00;41.70;;;;;;1536445;75;1157;-59
2022/05/27 01:02:50;;;;;;;;;;;25.00;41.70;;;;;;1532825;76;1952;-60
2022/05/27 01:04:52;;;;;;;;;;;25.00;41.70;;;;;;1542357;76;1436;-59
2022/05/27 01:06:54;;;;;;;;;;;25.00;41.80;;;;;;1538474;76;762;-59
2022/05/27 01:08:56;;;;;;;;;;;25.00;41.80;;;;;;1535175;76;766;-59
2022/05/27 01:11:15;;;;;;;;;;;25.00;41.80;;;;;;1542624;76;1135;-57
2022/05/27 01:13:22;;;;;;;;;;;25.00;41.80;;;;;;1544331;75;690;-58
2022/05/27 01:15:25;;;;;;;;;;;24.90;41.80;;;;;;1545897;75;1947;-59
2022/05/27 01:17:41;;;;;;;;;;;24.90;41.80;;;;;;1534295;75;1560;-60
2022/05/27 01:22:06;;;;;;;;;;;24.90;42.00;;;;;;1533096;75;1922;-59
2022/05/27 01:24:16;;;;;;;;;;;25.00;42.00;;;;;;1527780;75;680;-59
2022/05/27 01:26:19;;;;;;;;;;;25.00;42.10;;;;;;1538970;75;682;-57
2022/05/27 01:28:32;;;;;;;;;;;25.00;42.00;;;;;;1549697;75;2098;-59
2022/05/27 01:30:37;;;;;;;;;;;24.90;42.10;;;;;;1559821;75;1085;-59
2022/05/27 01:32:40;;;;;;;;;;;24.90;42.10;;;;;;1540581;75;1462;-61
2022/05/27 01:34:44;;;;;;;;;;;25.00;42.10;;;;;;1539316;76;1226;-57
2022/05/27 01:36:48;;;;;;;;;;;25.00;42.20;;;;;;1538151;76;1955;-57
2022/05/27 01:39:00;;;;;;;;;;;25.00;42.30;;;;;;1541217;76;797;-58
2022/05/27 01:41:06;;;;;;;;;;;25.00;42.10;;;;;;1509257;77;1106;-57
2022/05/27 01:43:25;;;;;;;;;;;24.90;42.10;;;;;;1530176;75;1949;-59
2022/05/27 01:45:28;;;;;;;;;;;25.00;42.10;;;;;;1460063;81;1146;-60
2022/05/27 01:47:47;;;;;;;;;;;24.90;42.10;;;;;;1506929;75;950;-59
2022/05/27 01:49:50;;;;;;;;;;;24.90;42.00;;;;;;1525874;76;2051;-59
2022/05/27 01:52:09;;;;;;;;;;;25.00;42.10;;;;;;1534493;75;1101;-59
2022/05/27 01:54:18;;;;;;;;;;;25.00;42.10;;;;;;1533985;75;682;-59
2022/05/27 01:56:27;;;;;;;;;;;25.00;42.10;;;;;;1536145;76;748;-59
2022/05/27 01:58:31;;;;;;;;;;;25.00;42.20;;;;;;1520927;76;749;-59
2022/05/27 02:00:32;;;;;;;;;;;25.00;42.10;;;;;;1526979;76;1564;-58
2022/05/27 02:02:35;;;;;;;;;;;24.90;42.20;;;;;;1539998;76;1944;-59
2022/05/27 02:04:38;;;;;;;;;;;25.00;42.10;;;;;;1543490;75;700;-59
2022/05/27 02:06:41;;;;;;;;;;;24.90;42.10;;;;;;1536308;76;622;-59
2022/05/27 02:08:45;;;;;;;;;;;25.00;42.10;;;;;;1533686;76;1031;-58
2022/05/27 02:10:54;;;;;;;;;;;24.90;42.10;;;;;;1535211;75;1117;-58
2022/05/27 02:13:00;;;;;;;;;;;24.90;42.00;;;;;;1531862;76;755;-59
2022/05/27 02:15:04;;;;;;;;;;;24.90;41.90;;;;;;1540769;76;1663;-59
2022/05/27 02:17:07;;;;;;;;;;;25.00;41.80;;;;;;1530531;76;708;-59
2022/05/27 02:19:25;;;;;;;;;;;24.90;41.90;;;;;;1527141;76;684;-60
2022/05/27 02:21:29;;;;;;;;;;;25.00;41.80;;;;;;1533651;75;1792;-57
2022/05/27 02:23:38;;;;;;;;;;;24.90;41.80;;;;;;1534485;76;1940;-60
2022/05/27 02:25:41;;;;;;;;;;;25.00;41.90;;;;;;1521797;76;1092;-58
2022/05/27 02:27:50;;;;;;;;;;;24.90;41.80;;;;;;1521332;76;1524;-59
2022/05/27 02:29:53;;;;;;;;;;;24.90;42.00;;;;;;1545078;76;1768;-59
2022/05/27 02:31:56;;;;;;;;;;;24.90;42.00;;;;;;1534898;75;1064;-59
2022/05/27 02:36:28;;;;;;;;;;;24.90;41.90;;;;;;1530806;76;1656;-59
2022/05/27 02:38:30;;;;;;;;;;;24.90;42.00;;;;;;1543750;75;664;-60
2022/05/27 02:40:33;;;;;;;;;;;24.90;42.10;;;;;;1538636;76;1133;-58
2022/05/27 02:42:53;;;;;;;;;;;25.00;42.10;;;;;;1527038;76;1948;-60
2022/05/27 02:44:59;;;;;;;;;;;24.90;42.10;;;;;;1533158;76;794;-60
2022/05/27 02:47:06;;;;;;;;;;;24.90;42.10;;;;;;1541634;76;1966;-59
2022/05/27 02:49:15;;;;;;;;;;;24.90;42.10;;;;;;1532630;76;1646;-59
2022/05/27 02:51:19;;;;;;;;;;;24.90;42.20;;;;;;1529208;75;1910;-59
2022/05/27 02:53:32;;;;;;;;;;;24.90;42.10;;;;;;1534359;76;886;-59
2022/05/27 02:55:35;;;;;;;;;;;24.90;42.10;;;;;;1538438;76;664;-59
2022/05/27 02:57:39;;;;;;;;;;;25.00;42.10;;;;;;1532285;76;1590;-60
2022/05/27 02:59:41;;;;;;;;;;;25.00;42.10;;;;;;1528156;76;722;-60
2022/05/27 03:01:43;;;;;;;;;;;25.00;42.10;;;;;;1544473;76;1109;-59
2022/05/27 03:03:45;;;;;;;;;;;25.00;42.10;;;;;;1524047;75;1910;-60
2022/05/27 03:05:55;;;;;;;;;;;25.00;42.10;;;;;;1535389;76;782;-60
2022/05/27 03:08:04;;;;;;;;;;;25.00;42.10;;;;;;1544768;76;805;-59
2022/05/27 03:10:17;;;;;;;;;;;25.00;42.10;;;;;;1534393;76;1335;-59
2022/05/27 03:12:32;;;;;;;;;;;25.00;42.10;;;;;;1527428;76;706;-59
2022/05/27 03:14:45;;;;;;;;;;;25.00;42.10;;;;;;1534927;76;1912;-59
2022/05/27 03:16:51;;;;;;;;;;;25.00;42.10;;;;;;1530603;76;799;-60
2022/05/27 03:19:07;;;;;;;;;;;24.90;42.10;;;;;;1525502;75;1974;-59
2022/05/27 03:21:10;;;;;;;;;;;25.00;42.10;;;;;;1544822;75;1615;-59
2022/05/27 03:23:20;;;;;;;;;;;25.00;42.10;;;;;;1528645;75;1937;-58
2022/05/27 03:25:38;;;;;;;;;;;24.90;42.10;;;;;;1534843;76;1573;-59
2022/05/27 03:27:42;;;;;;;;;;;25.00;42.10;;;;;;1526735;76;1829;-60
2022/05/27 03:29:48;;;;;;;;;;;25.00;42.10;;;;;;1543851;76;689;-60
2022/05/27 03:31:51;;;;;;;;;;;25.00;42.10;;;;;;1544014;75;1165;-59
2022/05/27 03:33:55;;;;;;;;;;;25.00;42.10;;;;;;1531030;76;780;-59
2022/05/27 03:36:01;;;;;;;;;;;25.00;42.00;;;;;;1516728;77;1024;-59
2022/05/27 03:38:11;;;;;;;;;;;25.00;42.00;;;;;;1536469;75;1565;-60
2022/05/27 03:40:20;;;;;;;;;;;25.10;42.00;;;;;;1543561;76;1127;-59
2022/05/27 03:42:24;;;;;;;;;;;25.00;42.00;;;;;;1524100;75;1579;-60
2022/05/27 03:44:27;;;;;;;;;;;25.00;42.00;;;;;;1534137;76;1942;-61
2022/05/27 03:46:32;;;;;;;;;;;25.00;42.00;;;;;;1534347;76;1687;-59
2022/05/27 03:48:35;;;;;;;;;;;25.00;41.90;;;;;;1532673;73;228964;-68
2022/05/27 03:50:37;;;;;;;;;;;25.00;41.90;;;;;;1532191;76;697;-68
2022/05/27 03:52:40;;;;;;;;;;;25.00;41.90;;;;;;1525921;77;1493;-67
2022/05/27 03:54:42;;;;;;;;;;;25.10;41.90;;;;;;1526660;77;1034;-67
2022/05/27 03:56:44;;;;;;;;;;;25.10;41.80;;;;;;1525087;77;751;-66
2022/05/27 03:58:47;;;;;;;;;;;25.10;41.80;;;;;;1521577;76;1198;-67
2022/05/27 04:00:49;;;;;;;;;;;25.10;41.90;;;;;;1493264;77;633;-67
2022/05/27 04:02:52;;;;;;;;;;;25.10;42.00;;;;;;1505886;77;1935;-67
2022/05/27 04:04:54;;;;;;;;;;;25.10;41.80;;;;;;1520689;76;677;-66
2022/05/27 04:06:55;;;;;;;;;;;25.10;41.90;;;;;;1521146;77;1535;-68
2022/05/27 04:08:57;;;;;;;;;;;25.10;41.80;;;;;;1505165;77;1189;-66
2022/05/27 04:10:59;;;;;;;;;;;25.10;41.80;;;;;;1523971;77;716;-67
2022/05/27 04:13:01;;;;;;;;;;;25.00;41.90;;;;;;1490851;78;540;-67
2022/05/27 04:15:04;;;;;;;;;;;25.10;41.90;;;;;;1518242;77;679;-68
2022/05/27 04:19:25;;;;;;;;;;;25.00;41.80;;;;;;1520977;76;916;-68
2022/05/27 04:21:27;;;;;;;;;;;25.00;41.90;;;;;;1498659;78;1579;-67
2022/05/27 04:23:29;;;;;;;;;;;25.00;41.90;;;;;;1522896;76;1936;-66
2022/05/27 04:25:31;;;;;;;;;;;25.00;42.00;;;;;;1505792;78;729;-68
2022/05/27 04:27:33;;;;;;;;;;;25.00;42.00;;;;;;1522400;76;1119;-67
2022/05/27 04:29:37;;;;;;;;;;;25.00;42.00;;;;;;1500673;78;688;-69
2022/05/27 04:31:38;;;;;;;;;;;25.00;41.90;;;;;;1529348;77;689;-68
2022/05/27 04:33:40;;;;;;;;;;;25.10;41.90;;;;;;1525917;76;717;-69
2022/05/27 04:35:42;;;;;;;;;;;25.00;41.80;;;;;;1535406;76;1346;-66
2022/05/27 04:37:44;;;;;;;;;;;25.00;42.00;;;;;;1539454;76;1122;-67
2022/05/27 04:39:46;;;;;;;;;;;25.10;41.90;;;;;;1508836;77;649;-65
2022/05/27 04:41:48;;;;;;;;;;;25.10;41.90;;;;;;1526122;77;701;-68
2022/05/27 04:43:50;;;;;;;;;;;25.10;41.80;;;;;;1524109;77;1941;-69
2022/05/27 04:45:52;;;;;;;;;;;25.10;41.80;;;;;;1519246;77;696;-69
2022/05/27 04:47:54;;;;;;;;;;;25.10;41.80;;;;;;1523858;77;1159;-70
2022/05/27 04:49:56;;;;;;;;;;;25.00;42.00;;;;;;1524740;76;1588;-69
2022/05/27 04:51:58;;;;;;;;;;;25.10;42.00;;;;;;1518872;77;758;-67
2022/05/27 04:54:00;;;;;;;;;;;25.00;42.00;;;;;;1509762;78;681;-68
2022/05/27 04:56:02;;;;;;;;;;;25.00;42.00;;;;;;1481725;78;713;-65
2022/05/27 04:58:04;;;;;;;;;;;25.00;41.90;;;;;;1484742;78;1143;-68
2022/05/27 05:00:07;;;;;;;;;;;25.10;42.10;;;;;;1490152;78;709;-68
2022/05/27 05:02:09;;;;;;;;;;;25.10;41.70;;;;;;1485033;78;719;-69
2022/05/27 05:04:11;;;;;;;;;;;25.10;41.70;;;;;;1507349;77;1939;-69
2022/05/27 05:06:13;;;;;;;;;;;25.10;41.80;;;;;;1508496;77;678;-66
2022/05/27 05:08:17;;;;;;;;;;;25.10;41.80;;;;;;1507502;78;1212;-66
2022/05/27 05:10:19;;;;;;;;;;;25.10;41.80;;;;;;1506439;78;668;-68
2022/05/27 05:12:24;;;;;;;;;;;25.00;41.70;;;;;;1509989;78;569;-68
2022/05/27 05:14:26;;;;;;;;;;;24.90;41.80;;;;;;1505513;78;906;-69
2022/05/27 05:16:28;;;;;;;;;;;25.00;41.80;;;;;;1506263;78;1593;-65
2022/05/27 05:18:30;;;;;;;;;;;25.00;41.70;;;;;;1523140;77;1133;-71
2022/05/27 05:20:32;;;;;;;;;;;25.00;41.60;;;;;;1512537;77;671;-65
2022/05/27 05:22:34;;;;;;;;;;;25.10;41.70;;;;;;1521090;77;672;-64
2022/05/27 05:24:35;;;;;;;;;;;25.10;41.80;;;;;;1510712;78;1950;-67
2022/05/27 05:26:37;;;;;;;;;;;25.10;41.80;;;;;;1502790;78;671;-71
2022/05/27 05:28:39;;;;;;;;;;;25.10;42.30;;;;;;1500619;78;1148;-71
2022/05/27 05:30:41;;;;;;;;;;;25.20;41.80;;;;;;1510514;78;1487;-71
2022/05/27 05:32:43;;;;;;;;;;;25.20;41.60;;;;;;1518407;76;697;-71
2022/05/27 05:34:45;;;;;;;;;;;25.10;41.70;;;;;;1529805;76;756;-70
2022/05/27 05:36:47;;;;;;;;;;;25.00;41.80;;;;;;1516771;78;673;-70
2022/05/27 05:38:50;;;;;;;;;;;25.00;41.80;;;;;;1524110;77;1125;-70
2022/05/27 05:40:52;;;;;;;;;;;25.00;41.90;;;;;;1524737;77;677;-71
2022/05/27 05:42:54;;;;;;;;;;;24.90;42.00;;;;;;1525671;77;692;-70
2022/05/27 05:44:58;;;;;;;;;;;24.90;42.00;;;;;;1519644;77;1933;-69
2022/05/27 05:46:59;;;;;;;;;;;24.80;41.90;;;;;;1516084;77;1122;-71
2022/05/27 05:49:01;;;;;;;;;;;24.80;42.00;;;;;;1520896;76;1107;-71
2022/05/27 05:51:03;;;;;;;;;;;24.80;42.00;;;;;;1524011;77;733;-72
2022/05/27 05:53:05;;;;;;;;;;;24.70;42.00;;;;;;1525372;77;654;-72
2022/05/27 05:55:07;;;;;;;;;;;24.80;42.00;;;;;;1524188;77;709;-70
2022/05/27 05:57:10;;;;;;;;;;;24.80;42.00;;;;;;1521545;77;1159;-70
2022/05/27 05:59:11;;;;;;;;;;;24.80;42.00;;;;;;1524001;77;715;-71
2022/05/27 06:01:13;;;;;;;;;;;24.80;42.00;;;;;;1520069;77;676;-71
2022/05/27 06:03:15;;;;;;;;;;;24.70;42.10;;;;;;1529973;76;647;-71
2022/05/27 06:05:17;;;;;;;;;;;24.70;42.00;;;;;;1524083;77;683;-69
2022/05/27 06:07:19;;;;;;;;;;;24.70;42.00;;;;;;1524104;77;1126;-70
2022/05/27 06:09:25;;;;;;;;;;;24.60;41.80;;;;;;1523565;77;673;-71
2022/05/27 06:11:24;;;;;;;;;;;24.70;41.90;;;;;;1511303;77;1106;-71
2022/05/27 06:13:26;;;;;;;;;;;24.60;41.80;;;;;;1514859;77;680;-71
2022/05/27 06:15:28;;;;;;;;;;;24.60;41.80;;;;;;1521773;77;694;-72
2022/05/27 06:17:30;;;;;;;;;;;24.70;41.80;;;;;;1532459;76;1227;-69
2022/05/27 06:19:32;;;;;;;;;;;24.60;41.60;;;;;;1527633;77;629;-70
2022/05/27 06:21:34;;;;;;;;;;;24.60;41.60;;;;;;1518572;77;728;-72
2022/05/27 06:23:36;;;;;;;;;;;24.60;41.50;;;;;;1523832;77;1936;-74
2022/05/27 06:25:39;;;;;;;;;;;24.60;41.50;;;;;;1524218;77;685;-74
2022/05/27 06:27:41;;;;;;;;;;;24.50;41.50;;;;;;1523309;77;1167;-71
2022/05/27 06:34:26;;;;;;;;;;;24.50;41.30;;;;;;1523897;77;722;-71
2022/05/27 06:36:28;;;;;;;;;;;24.50;41.30;;;;;;1526653;77;708;-71
2022/05/27 06:38:30;;;;;;;;;;;24.50;41.30;;;;;;1524144;77;1131;-71
2022/05/27 06:40:31;;;;;;;;;;;24.50;41.20;;;;;;1523413;77;684;-71
2022/05/27 06:42:33;;;;;;;;;;;24.50;41.30;;;;;;1532707;77;648;-70
2022/05/27 06:44:36;;;;;;;;;;;24.50;41.20;;;;;;1527619;77;1937;-71
2022/05/27 06:46:38;;;;;;;;;;;24.50;41.20;;;;;;1531459;76;694;-71
2022/05/27 06:48:40;;;;;;;;;;;24.50;41.20;;;;;;1518191;77;1083;-70
2022/05/27 06:50:42;;;;;;;;;;;24.50;41.20;;;;;;1530661;77;775;-71
2022/05/27 06:52:44;;;;;;;;;;;24.50;41.10;;;;;;1526766;77;685;-72
2022/05/27 06:54:46;;;;;;;;;;;24.50;41.10;;;;;;1531177;77;658;-72
2022/05/27 06:56:50;;;;;;;;;;;24.50;41.20;;;;;;1527435;77;1474;-71
2022/05/27 06:58:52;;;;;;;;;;;24.40;41.00;;;;;;1519919;77;1111;-73
2022/05/27 07:00:54;;;;;;;;;;;24.40;41.00;;;;;;1527596;76;683;-71
2022/05/27 07:02:56;;;;;;;;;;;24.40;40.90;;;;;;1528293;77;694;-72
2022/05/27 07:04:58;;;;;;;;;;;24.50;41.00;;;;;;1528260;77;1947;-70
2022/05/27 07:07:00;;;;;;;;;;;24.40;40.90;;;;;;1535689;77;694;-70
2022/05/27 07:09:05;;;;;;;;;;;24.40;40.80;;;;;;1540120;76;1057;-70
2022/05/27 07:11:05;;;;;;;;;;;24.40;40.70;;;;;;1539933;77;1016;-71
2022/05/27 07:13:07;;;;;;;;;;;24.40;40.70;;;;;;1538461;76;659;-70
2022/05/27 07:15:09;;;;;;;;;;;24.40;40.70;;;;;;1534068;76;709;-72
2022/05/27 07:17:11;;;;;;;;;;;24.40;40.70;;;;;;1538948;76;1090;-71
2022/05/27 07:19:14;;;;;;;;;;;24.40;40.60;;;;;;1532508;77;755;-73
2022/05/27 07:21:16;;;;;;;;;;;24.40;40.70;;;;;;1537623;76;741;-70
2022/05/27 07:23:18;;;;;;;;;;;24.40;40.60;;;;;;1532124;77;643;-71
2022/05/27 07:25:19;;;;;;;;;;;24.40;40.60;;;;;;1533428;77;1926;-72
2022/05/27 07:27:21;;;;;;;;;;;24.40;40.50;;;;;;1527655;76;1162;-69
2022/05/27 07:29:23;;;;;;;;;;;24.30;40.60;;;;;;1534723;76;711;-69
2022/05/27 07:31:25;;;;;;;;;;;24.40;40.50;;;;;;1533959;77;664;-71
2022/05/27 07:33:27;;;;;;;;;;;24.40;40.50;;;;;;1530270;77;686;-69
2022/05/27 07:35:29;;;;;;;;;;;24.40;40.50;;;;;;1531467;77;648;-71
2022/05/27 07:37:31;;;;;;;;;;;24.40;40.40;;;;;;1530437;77;1154;-70
2022/05/27 07:39:33;;;;;;;;;;;24.30;40.40;;;;;;1533834;77;643;-72
2022/05/27 07:41:35;;;;;;;;;;;24.40;40.50;;;;;;1533765;77;668;-69
2022/05/27 07:43:37;;;;;;;;;;;24.40;40.40;;;;;;1519898;77;676;-71
2022/05/27 07:45:39;;;;;;;;;;;24.40;40.50;;;;;;1533507;77;1927;-70
2022/05/27 07:47:41;;;;;;;;;;;24.40;40.40;;;;;;1524884;76;1081;-70
2022/05/27 07:49:43;;;;;;;;;;;24.40;40.40;;;;;;1533600;77;706;-70
2022/05/27 07:51:46;;;;;;;;;;;24.30;40.40;;;;;;1533788;77;549;-71
2022/05/27 07:53:48;;;;;;;;;;;24.30;40.30;;;;;;1533916;77;696;-67
2022/05/27 07:55:50;;;;;;;;;;;24.40;40.50;;;;;;1533652;77;684;-69
2022/05/27 07:57:52;;;;;;;;;;;24.40;40.40;;;;;;1521332;76;1085;-67
2022/05/27 08:00:01;;;;;;;;;;;24.50;40.20;;;;;;1525476;76;689;-67
2022/05/27 08:02:04;;;;;;;;;;;24.60;40.20;;;;;;1525441;77;692;-66
2022/05/27 08:04:05;;;;;;;;;;;24.60;40.10;;;;;;1528401;77;1933;-65
2022/05/27 08:06:07;;;;;;;;;;;24.60;40.00;;;;;;1531152;77;692;-67
2022/05/27 08:08:09;;;;;;;;;;;24.70;40.00;;;;;;1526634;77;1142;-68
2022/05/27 08:10:12;;;;;;;;;;;24.60;39.70;;;;;;1534069;77;717;-68
2022/05/27 08:12:14;;;;;;;;;;;24.60;39.60;;;;;;1531684;76;712;-68
2022/05/27 08:14:16;;;;;;;;;;;24.70;39.60;;;;;;1531113;76;596;-69
2022/05/27 08:16:17;;;;;;;;;;;24.70;39.50;;;;;;1519641;77;698;-68
2022/05/27 08:18:20;;;;;;;;;;;24.80;39.30;;;;;;1527010;76;1137;-67
2022/05/27 08:20:23;;;;;;;;;;;24.80;39.30;;;;;;1534221;77;696;-66
2022/05/27 08:22:25;;;;;;;;;;;24.80;39.20;;;;;;1531060;77;689;-67
2022/05/27 08:24:27;;;;;;;;;;;24.90;39.20;;;;;;1527699;76;1936;-67
2022/05/27 08:26:29;;;;;;;;;;;24.90;39.00;;;;;;1532693;77;666;-67
2022/05/27 08:28:31;;;;;;;;;;;24.90;38.90;;;;;;1533996;76;1191;-68
2022/05/27 08:30:34;;;;;;;;;;;25.00;38.90;;;;;;1546752;76;710;-66
2022/05/27 08:32:36;;;;;;;;;;;25.00;38.60;;;;;;1533917;77;690;-68
2022/05/27 08:39:17;;;;;;;;;;;25.00;38.30;;;;;;1534007;77;741;-68
2022/05/27 08:41:26;;;;;;;;;;;25.00;37.50;;;;;;1534980;77;580;-68
2022/05/27 08:43:46;;;;;;;;;;;24.90;38.10;;;;;;1526620;77;1003;-69
2022/05/27 08:46:06;;;;;;;;;;;24.90;38.00;;;;;;1534275;77;1928;-69
2022/05/27 08:48:09;;;;;;;;;;;25.00;38.10;;;;;;1531105;76;1513;-70
2022/05/27 08:50:12;;;;;;;;;;;25.00;37.90;;;;;;1532519;77;800;-67
2022/05/27 08:52:16;;;;;;;;;;;24.90;37.90;;;;;;1533758;77;740;-65
2022/05/27 08:54:22;;;;;;;;;;;25.00;37.80;;;;;;1532250;77;667;-67
2022/05/27 09:01:18;;;;;;;;;;;25.00;37.80;;;;;;1530334;77;1683;-65
2022/05/27 09:03:20;;;;;;;;;;;25.00;37.80;;;;;;1533786;77;680;-67
2022/05/27 09:05:23;;;;;;;;;;;25.00;37.90;;;;;;1533961;77;1932;-68
2022/05/27 09:07:26;;;;;;;;;;;25.00;37.90;;;;;;1533914;76;1134;-67
2022/05/27 09:09:29;;;;;;;;;;;25.00;37.80;;;;;;1521885;77;1281;-66
2022/05/27 09:11:32;;;;;;;;;;;25.00;37.90;;;;;;1530815;77;681;-69
2022/05/27 09:13:36;;;;;;;;;;;25.00;37.80;;;;;;1536810;76;1138;-69
2022/05/27 09:15:45;;;;;;;;;;;25.00;37.80;;;;;;1534077;77;605;-63
2022/05/27 09:17:49;;;;;;;;;;;25.00;37.70;;;;;;1534206;76;1178;-67
2022/05/27 09:19:55;;;;;;;;;;;25.00;37.40;;;;;;1532759;77;673;-68
2022/05/27 09:22:07;;;;;;;;;;;25.00;37.80;;;;;;1510854;77;1840;-67
2022/05/27 09:24:30;;;;;;;;;;;25.00;38.10;;;;;;1519420;77;1639;-67
2022/05/27 09:26:33;;;;;;;;;;;25.00;38.00;;;;;;1524305;77;1172;-69
2022/05/27 09:28:45;;;;;;;;;;;25.10;37.80;;;;;;1532353;76;1824;-68
2022/05/27 09:30:47;;;;;;;;;;;25.00;38.10;;;;;;1520056;77;673;-66
2022/05/27 09:32:55;;;;;;;;;;;25.00;38.00;;;;;;1524670;77;579;-66
2022/05/27 09:34:59;;;;;;;;;;;25.00;37.90;;;;;;1530643;77;690;-68
2022/05/27 09:37:01;;;;;;;;;;;25.00;38.00;;;;;;1533778;77;677;-68
2022/05/27 09:39:05;;;;;;;;;;;25.00;38.00;;;;;;1534904;76;1107;-68
2022/05/27 09:41:11;;;;;;;;;;;25.00;38.00;;;;;;1537300;77;614;-68
2022/05/27 09:43:15;;;;;;;;;;;25.00;37.90;;;;;;1528865;76;721;-68
2022/05/27 09:45:17;;;;;;;;;;;25.00;37.90;;;;;;1539768;76;1923;-67
2022/05/27 09:47:19;;;;;;;;;;;25.00;37.90;;;;;;1533917;76;1155;-66
2022/05/27 09:49:21;;;;;;;;;;;24.90;37.80;;;;;;1541523;73;229990;-68
2022/05/27 09:51:22;;;;;;;;;;;25.00;37.80;;;;;;1590444;74;687;-67
2022/05/27 09:53:41;;;;;;;;;;;24.90;37.70;;;;;;1587317;74;694;-67
2022/05/27 09:56:02;;;;;;;;;;;24.90;37.80;;;;;;1573097;74;742;-68
2022/05/27 09:58:04;;;;;;;;;;;24.90;37.90;;;;;;1587943;72;1606;-66
2022/05/27 10:00:10;;;;;;;;;;;24.80;38.00;;;;;;1610502;72;747;-67
2022/05/27 10:02:14;;;;;;;;;;;24.90;38.10;;;;;;1602972;72;1463;-67
2022/05/27 10:04:16;;;;;;;;;;;24.90;38.10;;;;;;1602201;74;694;-68
2022/05/27 10:06:23;;;;;;;;;;;24.90;38.20;;;;;;1601299;74;1931;-69
2022/05/27 10:08:25;;;;;;;;;;;24.90;38.20;;;;;;1605134;72;1599;-67
2022/05/27 10:10:32;;;;;;;;;;;24.80;38.10;;;;;;1601514;72;828;-67
2022/05/27 10:12:34;;;;;;;;;;;24.90;38.20;;;;;;1601735;74;659;-68
2022/05/27 10:14:37;;;;;;;;;;;24.90;38.20;;;;;;1609130;74;664;-68
2022/05/27 10:16:40;;;;;;;;;;;24.90;38.40;;;;;;1608536;72;664;-68
2022/05/27 10:18:42;;;;;;;;;;;24.80;38.20;;;;;;1600500;72;1149;-68
2022/05/27 10:20:45;;;;;;;;;;;24.90;38.30;;;;;;1609057;72;555;-71
2022/05/27 10:22:48;;;;;;;;;;;24.80;38.80;;;;;;1563285;75;1006;-65
2022/05/27 10:25:04;;;;;;;;;;;24.90;39.00;;;;;;1599725;74;1906;-65
2022/05/27 10:27:07;;;;;;;;;;;24.90;39.00;;;;;;1601470;72;748;-68
2022/05/27 10:29:12;;;;;;;;;;;24.80;38.60;;;;;;1609420;72;1133;-68
2022/05/27 10:31:15;;;;;;;;;;;24.80;38.60;;;;;;1609498;74;662;-69
2022/05/27 10:33:19;;;;;;;;;;;24.80;38.70;;;;;;1609262;74;670;-67
2022/05/27 10:35:30;;;;;;;;;;;24.80;38.60;;;;;;1609281;74;662;-69
2022/05/27 10:37:39;;;;;;;;;;;24.80;38.90;;;;;;1609564;72;1101;-68
2022/05/27 10:39:46;;;;;;;;;;;24.80;39.00;;;;;;1605686;72;1899;-67
2022/05/27 10:42:05;;;;;;;;;;;24.60;38.90;;;;;;1606943;74;1919;-68
2022/05/27 10:44:11;;;;;;;;;;;24.60;39.00;;;;;;1603289;72;748;-67
2022/05/27 10:46:15;;;;;;;;;;;24.70;39.10;;;;;;1608413;72;1934;-67
2022/05/27 10:48:35;;;;;;;;;;;24.70;39.40;;;;;;1603556;72;1160;-65
2022/05/27 10:50:47;;;;;;;;;;;24.60;39.50;;;;;;1604320;72;757;-67
2022/05/27 10:53:10;;;;;;;;;;;24.70;39.70;;;;;;1546491;77;980;-67
2022/05/27 10:55:17;;;;;;;;;;;24.60;39.50;;;;;;1601384;74;796;-67
2022/05/27 11:02:24;;;;;;;;;;;24.70;39.50;;;;;;1591828;74;1821;-68
2022/05/27 11:04:31;;;;;;;;;;;24.60;39.40;;;;;;1600734;72;677;-67
2022/05/27 11:06:49;;;;;;;;;;;24.60;39.60;;;;;;1606299;72;1921;-68
2022/05/27 11:09:09;;;;;;;;;;;24.60;39.60;;;;;;1596588;74;1154;-70
2022/05/27 11:11:25;;;;;;;;;;;24.50;39.70;;;;;;1608358;72;686;-70
2022/05/27 11:16:08;;;;;;;;;;;24.60;40.40;;;;;;1576205;74;1658;-68
2022/05/27 11:18:18;;;;;;;;;;;24.70;39.90;;;;;;1567861;74;1109;-68
2022/05/27 11:20:24;;;;;;;;;;;24.70;40.00;;;;;;1577449;73;937;-68
2022/05/27 11:22:46;;;;;;;;;;;24.80;39.90;;;;;;1614800;72;1362;-68
2022/05/27 11:24:49;;;;;;;;;;;24.80;39.90;;;;;;1604322;73;1886;-68
2022/05/27 11:26:59;;;;;;;;;;;24.80;40.00;;;;;;1607800;73;1933;-69
2022/05/27 11:29:19;;;;;;;;;;;24.80;40.10;;;;;;1609576;72;1921;-71
2022/05/27 11:31:25;;;;;;;;;;;24.90;40.10;;;;;;1603482;72;644;-66
2022/05/27 11:33:27;;;;;;;;;;;24.90;40.00;;;;;;1607443;73;1703;-67
2022/05/27 11:35:31;;;;;;;;;;;24.90;40.20;;;;;;1615223;73;675;-70
2022/05/27 11:37:40;;;;;;;;;;;24.90;40.50;;;;;;1608848;72;1371;-68
2022/05/27 11:40:00;;;;;;;;;;;25.00;40.50;;;;;;1599922;72;1090;-68
2022/05/27 11:42:20;;;;;;;;;;;25.00;40.10;;;;;;1602307;73;756;-69
2022/05/27 11:44:27;;;;;;;;;;;25.00;40.00;;;;;;1598358;72;634;-68
2022/05/27 11:46:33;;;;;;;;;;;25.00;40.00;;;;;;1616806;73;2064;-67
2022/05/27 11:48:46;;;;;;;;;;;25.00;39.80;;;;;;1610465;72;1122;-68
2022/05/27 11:51:07;;;;;;;;;;;25.00;39.80;;;;;;1606879;72;1523;-68
2022/05/27 11:53:14;;;;;;;;;;;25.00;39.60;;;;;;1609756;72;757;-69
2022/05/27 11:55:36;;;;;;;;;;;25.00;39.60;;;;;;1618063;73;1924;-68
2022/05/27 11:57:46;;;;;;;;;;;24.90;39.60;;;;;;1603761;73;591;-67
2022/05/27 11:59:55;;;;;;;;;;;24.90;39.60;;;;;;1617599;72;1149;-68
2022/05/27 12:01:59;;;;;;;;;;;24.80;39.40;;;;;;1604368;72;1042;-69
2022/05/27 12:04:02;;;;;;;;;;;24.80;39.50;;;;;;1596104;73;1405;-72
2022/05/27 12:06:06;;;;;;;;;;;24.80;39.60;;;;;;1609049;73;1933;-67
2022/05/27 12:08:09;;;;;;;;;;;24.80;39.60;;;;;;1613578;72;1790;-69
2022/05/27 12:10:28;;;;;;;;;;;24.80;39.60;;;;;;1604039;73;1847;-72
2022/05/27 12:12:32;;;;;;;;;;;24.80;39.60;;;;;;1606236;73;860;-72
2022/05/27 12:14:38;;;;;;;;;;;24.80;39.70;;;;;;1609322;72;802;-70
2022/05/27 12:16:42;;;;;;;;;;;24.80;39.70;;;;;;1606735;73;1941;-68
2022/05/27 12:18:48;;;;;;;;;;;24.90;39.70;;;;;;1602653;72;1131;-72
2022/05/27 12:20:50;;;;;;;;;;;24.80;39.30;;;;;;1595411;73;1968;-70
2022/05/27 12:22:52;;;;;;;;;;;24.90;39.60;;;;;;1609082;73;840;-69
2022/05/27 12:24:56;;;;;;;;;;;24.90;39.50;;;;;;1606234;73;810;-69
2022/05/27 12:26:58;;;;;;;;;;;24.90;39.30;;;;;;1601534;72;1938;-69
2022/05/27 12:29:01;;;;;;;;;;;24.90;39.30;;;;;;1606596;72;1269;-70
2022/05/27 12:31:03;;;;;;;;;;;25.00;39.30;;;;;;1619002;73;658;-71
2022/05/27 12:33:05;;;;;;;;;;;25.00;39.20;;;;;;1601690;73;1580;-70
2022/05/27 12:35:14;;;;;;;;;;;25.00;39.10;;;;;;1610517;73;743;-70
2022/05/27 12:37:26;;;;;;;;;;;24.90;39.30;;;;;;1580371;72;1176;-71
2022/05/27 12:39:29;;;;;;;;;;;24.90;39.30;;;;;;1609950;73;1162;-70
2022/05/27 12:41:37;;;;;;;;;;;24.90;39.40;;;;;;1621356;72;727;-70
2022/05/27 12:43:39;;;;;;;;;;;24.90;39.80;;;;;;1604638;73;743;-70
2022/05/27 12:45:48;;;;;;;;;;;24.90;39.60;;;;;;1607480;73;1931;-67
2022/05/27 12:47:51;;;;;;;;;;;24.90;39.50;;;;;;1608387;73;648;-70
2022/05/27 12:49:59;;;;;;;;;;;25.00;39.50;;;;;;1616177;73;1157;-72
2022/05/27 12:52:02;;;;;;;;;;;24.90;39.70;;;;;;1609026;72;652;-69